地図

経路データ

SID SEASON NUMBER BASIN SUBBASIN NAME ISO_TIME NATURE LAT LON WMO_WIND WMO_PRES WMO_AGENCY TRACK_TYPE DIST2LAND LANDFALL IFLAG USA_AGENCY USA_ATCF_ID USA_LAT USA_LON USA_RECORD USA_STATUS USA_WIND USA_PRES USA_SSHS USA_R34_NE USA_R34_SE USA_R34_SW USA_R34_NW USA_R50_NE USA_R50_SE USA_R50_SW USA_R50_NW USA_R64_NE USA_R64_SE USA_R64_SW USA_R64_NW USA_POCI USA_ROCI USA_RMW USA_EYE TOKYO_LAT TOKYO_LON TOKYO_GRADE TOKYO_WIND TOKYO_PRES TOKYO_R50_DIR TOKYO_R50_LONG TOKYO_R50_SHORT TOKYO_R30_DIR TOKYO_R30_LONG TOKYO_R30_SHORT TOKYO_LAND CMA_LAT CMA_LON CMA_CAT CMA_WIND CMA_PRES HKO_LAT HKO_LON HKO_CAT HKO_WIND HKO_PRES NEWDELHI_LAT NEWDELHI_LON NEWDELHI_GRADE NEWDELHI_WIND NEWDELHI_PRES NEWDELHI_CI NEWDELHI_DP NEWDELHI_POCI REUNION_LAT REUNION_LON REUNION_TYPE REUNION_WIND REUNION_PRES REUNION_TNUM REUNION_CI REUNION_RMW REUNION_R34_NE REUNION_R34_SE REUNION_R34_SW REUNION_R34_NW REUNION_R50_NE REUNION_R50_SE REUNION_R50_SW REUNION_R50_NW REUNION_R64_NE REUNION_R64_SE REUNION_R64_SW REUNION_R64_NW BOM_LAT BOM_LON BOM_TYPE BOM_WIND BOM_PRES BOM_TNUM BOM_CI BOM_RMW BOM_R34_NE BOM_R34_SE BOM_R34_SW BOM_R34_NW BOM_R50_NE BOM_R50_SE BOM_R50_SW BOM_R50_NW BOM_R64_NE BOM_R64_SE BOM_R64_SW BOM_R64_NW BOM_ROCI BOM_POCI BOM_EYE BOM_POS_METHOD BOM_PRES_METHOD NADI_LAT NADI_LON NADI_CAT NADI_WIND NADI_PRES WELLINGTON_LAT WELLINGTON_LON WELLINGTON_WIND WELLINGTON_PRES DS824_LAT DS824_LON DS824_STAGE DS824_WIND DS824_PRES TD9636_LAT TD9636_LON TD9636_STAGE TD9636_WIND TD9636_PRES TD9635_LAT TD9635_LON TD9635_WIND TD9635_PRES TD9635_ROCI NEUMANN_LAT NEUMANN_LON NEUMANN_CLASS NEUMANN_WIND NEUMANN_PRES MLC_LAT MLC_LON MLC_CLASS MLC_WIND MLC_PRES USA_GUST BOM_GUST BOM_GUST_PER REUNION_GUST REUNION_GUST_PER USA_SEAHGT USA_SEARAD_NE USA_SEARAD_SE USA_SEARAD_SW USA_SEARAD_NW STORM_SPEED STORM_DIR
1874080S13072 1874 8 SI MM NOT_NAMED 1874-03-21 06:00:00 NR -13.4000 72.1000 spur-split 1705 1633 __________O___ -1 -13.4000 72.1000 7 15 262
1874080S13072 1874 8 SI MM NOT_NAMED 1874-03-21 09:00:00 NR -13.5051 71.3616 spur-split 1633 1562 __________P___ -1 -13.5051 71.3616 7 14 262
1874080S13072 1874 8 SI MM NOT_NAMED 1874-03-21 12:00:00 NR -13.6072 70.6382 spur-split 1552 1491 __________P___ -1 -13.6072 70.6382 7 14 262
1874080S13072 1874 8 SI MM NOT_NAMED 1874-03-21 15:00:00 NR -13.7057 69.9457 spur-split 1481 1420 __________P___ -1 -13.7057 69.9457 7 13 262
1874080S13072 1874 8 SI MM NOT_NAMED 1874-03-21 18:00:00 NR -13.8000 69.3000 spur-split 1420 1359 __________O___ -1 -13.8000 69.3000 7 12 261
1874080S13072 1874 8 SI MM NOT_NAMED 1874-03-21 21:00:00 NR -13.8909 68.7106 spur-split 1359 1307 __________P___ -1 -13.8909 68.7106 7 11 261
1874080S13072 1874 8 SI MM NOT_NAMED 1874-03-22 00:00:00 NR -13.9837 68.1620 spur-split 1307 1256 __________P___ -1 -13.9837 68.1620 7 11 260
1874080S13072 1874 8 SI MM NOT_NAMED 1874-03-22 03:00:00 NR -14.0848 67.6324 spur-split 1247 1196 __________P___ -1 -14.0848 67.6324 7 11 258
1874080S13072 1874 8 SI MM NOT_NAMED 1874-03-22 06:00:00 NR -14.2000 67.1000 spur-split 1196 1146 __________O___ -1 -14.2000 67.1000 7 11 256
1874080S13072 1874 8 SI MM NOT_NAMED 1874-03-22 09:00:00 NR -14.3434 66.5323 spur-split 1137 1080 __________P___ -1 -14.3434 66.5323 7 11 255
1874080S13072 1874 8 SI MM NOT_NAMED 1874-03-22 12:00:00 NR -14.4995 65.9577 spur-split 1080 1022 __________P___ -1 -14.4995 65.9577 7 12 254
1874080S13072 1874 8 SI MM NOT_NAMED 1874-03-22 15:00:00 NR -14.6559 65.3792 spur-split 1015 958 __________P___ -1 -14.6559 65.3792 7 12 255
1874080S13072 1874 8 SI MM NOT_NAMED 1874-03-22 18:00:00 NR -14.8000 64.8000 spur-split 958 901 __________O___ -1 -14.8000 64.8000 7 12 258
1874080S13072 1874 8 SI MM NOT_NAMED 1874-03-22 21:00:00 NR -14.9061 64.2084 spur-split 901 854 __________P___ -1 -14.9061 64.2084 7 12 260
1874080S13072 1874 8 SI MM NOT_NAMED 1874-03-23 00:00:00 NR -14.9998 63.6195 spur-split 846 800 __________P___ -1 -14.9998 63.6195 7 11 261
1874080S13072 1874 8 SI MM NOT_NAMED 1874-03-23 03:00:00 NR -15.0936 63.0459 spur-split 792 747 __________P___ -1 -15.0936 63.0459 7 11 260
1874080S13072 1874 8 SI MM NOT_NAMED 1874-03-23 06:00:00 NR -15.2000 62.5000 spur-split 747 704 __________O___ -1 -15.2000 62.5000 7 11 257
1874080S13072 1874 8 SI MM NOT_NAMED 1874-03-23 09:00:00 NR -15.3393 61.9801 spur-split 704 653 __________P___ -1 -15.3393 61.9801 7 10 253
1874080S13072 1874 8 SI MM NOT_NAMED 1874-03-23 12:00:00 NR -15.4920 61.4901 spur-split 653 618 __________P___ -1 -15.4920 61.4901 7 10 251
1874080S13072 1874 8 SI MM NOT_NAMED 1874-03-23 15:00:00 NR -15.6488 61.0301 spur-split 612 570 __________P___ -1 -15.6488 61.0301 7 9 250
1874080S13072 1874 8 SI MM NOT_NAMED 1874-03-23 18:00:00 NR -15.8000 60.6000 spur-split 570 539 __________O___ -1 -15.8000 60.6000 7 9 251
1874080S13072 1874 8 SI MM NOT_NAMED 1874-03-23 21:00:00 NR -15.9321 60.1596 spur-split 539 499 __________P___ -1 -15.9321 60.1596 7 9 252
1874080S13072 1874 8 SI MM NOT_NAMED 1874-03-24 00:00:00 NR -16.0574 59.7524 spur-split 499 471 __________P___ -1 -16.0574 59.7524 7 8 251
1874080S13072 1874 8 SI MM NOT_NAMED 1874-03-24 03:00:00 NR -16.1791 59.3940 spur-split 471 450 __________P___ -1 -16.1791 59.3940 7 7 249
1874080S13072 1874 8 SI MM NOT_NAMED 1874-03-24 06:00:00 NR -16.3000 59.1000 spur-split 450 432 __________O___ -1 -16.3000 59.1000 7 6 243
1874080S13072 1874 8 SI MM NOT_NAMED 1874-03-24 09:00:00 NR -16.4287 58.8770 spur-split 432 405 __________P___ -1 -16.4287 58.8770 7 4 235
1874080S13072 1874 8 SI MM NOT_NAMED 1874-03-24 12:00:00 NR -16.5571 58.7173 spur-split 405 392 __________P___ -1 -16.5571 58.7173 7 4 226
1874080S13072 1874 8 SI MM NOT_NAMED 1874-03-24 15:00:00 NR -16.6819 58.5989 spur-split 392 378 __________P___ -1 -16.6819 58.5989 7 3 221
1874080S13072 1874 8 SI MM NOT_NAMED 1874-03-24 18:00:00 NR -16.8000 58.5000 spur-split 378 365 __________O___ -1 -16.8000 58.5000 7 3 224
1874080S13072 1874 8 SI MM NOT_NAMED 1874-03-24 21:00:00 NR -16.8827 58.4016 spur-split 365 352 __________P___ -1 -16.8827 58.4016 7 2 228
1874080S13072 1874 8 SI MM NOT_NAMED 1874-03-25 00:00:00 NR -16.9623 58.3145 spur-split 352 339 __________P___ -1 -16.9623 58.3145 7 2 224
1874080S13072 1874 8 SI MM NOT_NAMED 1874-03-25 03:00:00 NR -17.0608 58.2202 spur-split 339 327 __________P___ -1 -17.0608 58.2202 7 3 221
1874080S13072 1874 8 SI MM NOT_NAMED 1874-03-25 06:00:00 NR -17.2000 58.1000 spur-split 327 302 __________O___ -1 -17.2000 58.1000 7 5 220
1874080S13072 1874 8 SI MM NOT_NAMED 1874-03-25 09:00:00 NR -17.4152 57.9088 spur-split 302 268 __________P___ -1 -17.4152 57.9088 7 6 219
1874080S13072 1874 8 SI MM NOT_NAMED 1874-03-25 12:00:00 NR -17.6703 57.6931 spur-split 268 246 __________P___ -1 -17.6703 57.6931 7 7 218
1874080S13072 1874 8 SI MM NOT_NAMED 1874-03-25 15:00:00 NR -17.9402 57.4807 spur-split 246 213 __________P___ -1 -17.9402 57.4807 7 7 215
1874080S13072 1874 8 SI MM NOT_NAMED 1874-03-25 18:00:00 NR -18.2000 57.3000 spur-split 213 192 __________O___ -1 -18.2000 57.3000 7 6 210
1874080S13072 1874 8 SI MM NOT_NAMED 1874-03-25 21:00:00 NR -18.4224 57.1847 spur-split 192 172 __________P___ -1 -18.4224 57.1847 7 5 203
1874080S13072 1874 8 SI MM NOT_NAMED 1874-03-26 00:00:00 NR -18.6299 57.1047 spur-split 172 151 __________P___ -1 -18.6299 57.1047 7 4 198
1874080S13072 1874 8 SI MM NOT_NAMED 1874-03-26 03:00:00 NR -18.8224 57.0473 spur-split 154 133 __________P___ -1 -18.8224 57.0473 7 4 195
1874080S13072 1874 8 SI MM NOT_NAMED 1874-03-26 06:00:00 NR -19.0000 57.0000 spur-split 133 123 __________O___ -1 -19.0000 57.0000 7 4 197
1874080S13072 1874 8 SI MM NOT_NAMED 1874-03-26 09:00:00 NR -19.1562 56.9346 spur-split 118 109 __________P___ -1 -19.1562 56.9346 7 3 201
1874080S13072 1874 8 SI MM NOT_NAMED 1874-03-26 12:00:00 NR -19.3000 56.8775 spur-split 109 100 __________P___ -1 -19.3000 56.8775 7 3 199
1874080S13072 1874 8 SI MM NOT_NAMED 1874-03-26 15:00:00 NR -19.4437 56.8316 spur-split 107 92 __________P___ -1 -19.4437 56.8316 7 3 192
1874080S13072 1874 8 SI MM NOT_NAMED 1874-03-26 18:00:00 NR -19.6000 56.8000 spur-split 92 80 __________O___ -1 -19.6000 56.8000 7 3 187
1874080S13072 1874 8 SI MM NOT_NAMED 1874-03-26 21:00:00 NR -19.7816 56.7856 spur-split 80 71 __________P___ -1 -19.7816 56.7856 7 4 0
1874080S13072 1874 8 SI MM NOT_NAMED 1874-03-27 00:00:00 NR -19.9775 56.7849 spur-split 71 61 __________P___ -1 -19.9775 56.7849 7 4 178
1874080S13072 1874 8 SI MM NOT_NAMED 1874-03-27 03:00:00 NR -20.1847 56.7918 spur-split 61 53 __________P___ -1 -20.1847 56.7918 7 4 0
1874080S13072 1874 8 SI MM NOT_NAMED 1874-03-27 06:00:00 NR -20.4000 56.8000 spur-split 53 52 __________O___ -1 -20.4000 56.8000 7 4 182
1874080S13072 1874 8 SI MM NOT_NAMED 1874-03-27 09:00:00 NR -20.6178 56.7879 spur-split 53 53 __________P___ -1 -20.6178 56.7879 7 4 0
1874080S13072 1874 8 SI MM NOT_NAMED 1874-03-27 12:00:00 NR -20.8425 56.7777 spur-split 61 61 __________P___ -1 -20.8425 56.7777 7 5 0
1874080S13072 1874 8 SI MM NOT_NAMED 1874-03-27 15:00:00 NR -21.0709 56.7786 spur-split 84 84 __________P___ -1 -21.0709 56.7786 7 5 177
1874080S13072 1874 8 SI MM NOT_NAMED 1874-03-27 18:00:00 NR -21.3000 56.8000 spur-split 103 103 __________O___ -1 -21.3000 56.8000 7 4 172
1874080S13072 1874 8 SI MM NOT_NAMED 1874-03-27 21:00:00 NR -21.5127 56.8334 spur-split 105 105 __________P___ -1 -21.5127 56.8334 7 4 168
1874080S13072 1874 8 SI MM NOT_NAMED 1874-03-28 00:00:00 NR -21.7274 56.8904 spur-split 122 122 __________P___ -1 -21.7274 56.8904 7 5 163
1874080S13072 1874 8 SI MM NOT_NAMED 1874-03-28 03:00:00 NR -21.9533 56.9773 spur-split 146 146 __________P___ -1 -21.9533 56.9773 7 5 158
1874080S13072 1874 8 SI MM NOT_NAMED 1874-03-28 06:00:00 NR -22.2000 57.1000 spur-split 167 167 __________O___ -1 -22.2000 57.1000 7 6 153
1874080S13072 1874 8 SI MM NOT_NAMED 1874-03-28 09:00:00 NR -22.4785 57.2639 spur-split 204 204 __________P___ -1 -22.4785 57.2639 7 7 150
1874080S13072 1874 8 SI MM NOT_NAMED 1874-03-28 12:00:00 NR -22.7776 57.4623 spur-split 242 242 __________P___ -1 -22.7776 57.4623 7 7 148
1874080S13072 1874 8 SI MM NOT_NAMED 1874-03-28 15:00:00 NR -23.0879 57.6796 spur-split 280 280 __________P___ -1 -23.0879 57.6796 7 7 147
1874080S13072 1874 8 SI MM NOT_NAMED 1874-03-28 18:00:00 NR -23.4000 57.9000 spur-split 318 318 __________O___ -1 -23.4000 57.9000 7 7 148
1874080S13072 1874 8 SI MM NOT_NAMED 1874-03-28 21:00:00 NR -23.6794 58.0806 spur-split 357 357 __________P___ -1 -23.6794 58.0806 7 7 149
1874080S13072 1874 8 SI MM NOT_NAMED 1874-03-29 00:00:00 NR -23.9621 58.2640 spur-split 396 396 __________P___ -1 -23.9621 58.2640 7 7 149
1874080S13072 1874 8 SI MM NOT_NAMED 1874-03-29 03:00:00 NR -24.2637 58.4653 spur-split 432 432 __________P___ -1 -24.2637 58.4653 7 8 148
1874080S13072 1874 8 SI MM NOT_NAMED 1874-03-29 06:00:00 NR -24.6000 58.7000 spur-split 469 469 __________O___ -1 -24.6000 58.7000 7 9 147
1874080S13072 1874 8 SI MM NOT_NAMED 1874-03-29 09:00:00 NR -24.9933 58.9927 spur-split 520 520 __________P___ -1 -24.9933 58.9927 7 10 146
1874080S13072 1874 8 SI MM NOT_NAMED 1874-03-29 12:00:00 NR -25.4203 59.3195 spur-split 571 571 __________P___ -1 -25.4203 59.3195 7 11 145
1874080S13072 1874 8 SI MM NOT_NAMED 1874-03-29 15:00:00 NR -25.8620 59.6616 spur-split 637 637 __________P___ -1 -25.8620 59.6616 7 11 145
1874080S13072 1874 8 SI MM NOT_NAMED 1874-03-29 18:00:00 NR -26.3000 60.0000 spur-split 689 689 __________O___ -1 -26.3000 60.0000 7 10 145
1874080S13072 1874 8 SI MM NOT_NAMED 1874-03-29 21:00:00 NR -26.7197 60.3194 spur-split 741 741 __________P___ -1 -26.7197 60.3194 7 10 146
1874080S13072 1874 8 SI MM NOT_NAMED 1874-03-30 00:00:00 NR -27.1226 60.6217 spur-split 794 794 __________P___ -1 -27.1226 60.6217 7 10 146
1874080S13072 1874 8 SI MM NOT_NAMED 1874-03-30 03:00:00 NR -27.5143 60.9131 spur-split 846 846 __________P___ -1 -27.5143 60.9131 7 9 147
1874080S13072 1874 8 SI MM NOT_NAMED 1874-03-30 06:00:00 NR -27.9000 61.2000 spur-split 899 __________O___ -1 -27.9000 61.2000 7 9 147

IBTrACS Databaseについて

本データベースは、米国NOAAが公開する1842年以降の世界の熱帯低気圧のベストトラックデータアーカイブInternational Best Track Archive for Climate Stewardship (IBTrACS)を、ウェブで閲覧しやすい形式に変換したものです。

最終更新日:2021-12-03